Eurika — LYRZ — position and weather

sailwx.info

Track history (hours):
 
Tides and Currents Weather Stations Pressure Air Temp Water Temp Dewpoint Dewpoint Depression Visibility Wind Speed Wind Dir Waves Ship Positions

Eurika

Last reported at 2015-Apr-20 15:33 UTC. Time now 2015-Apr-21 09:46 UTC.
Position N 40°56' E 009°32'.

Length 79 m; draft 3.2 m.

MMSI: 277335000.

Date/timePositionNaut miles runAvg speedWind from/ knotsBaromVisibWave heightAir tempDewpointWater temp
2015-Apr-20 15:33N 40°56' E 009°32'0 0.0
2015-Apr-20 14:33N 40°56' E 009°32'0 0.0
2015-Apr-20 13:33N 40°56' E 009°32'0 0.0
2015-Apr-20 12:33N 40°56' E 009°32'0 0.0
2015-Apr-20 11:33N 40°56' E 009°32'0 0.0
2015-Apr-20 10:33N 40°56' E 009°32'0 0.0
2015-Apr-20 09:33N 40°56' E 009°32'0 0.0
2015-Apr-20 08:33N 40°56' E 009°32'0 0.0
2015-Apr-20 07:33N 40°56' E 009°32'0 0.0
2015-Apr-20 06:33N 40°56' E 009°32'0 0.0
2015-Apr-20 05:31N 40°56' E 009°32'0 0.0
2015-Apr-20 04:33N 40°56' E 009°32'0 0.0
2015-Apr-20 03:33N 40°56' E 009°32'240 7.0
2015-Apr-18 17:29N 43°14' E 005°08'8 8.5
2015-Apr-18 16:33N 43°19' E 005°00'8 7.6
2015-Apr-18 15:33N 43°23' E 004°52'2 2.1
2015-Apr-18 14:26N 43°23' E 004°48'0 0.0
2015-Apr-18 13:21N 43°23' E 004°48'0 0.0
2015-Apr-18 11:29N 43°23' E 004°48'0 0.0
2015-Apr-18 10:33N 43°23' E 004°48'  
2015-Apr-12 06:09N 43°33' E 004°43'12 4.5
2015-Apr-12 03:26N 43°24' E 004°54'7 5.8
2015-Apr-12 02:10N 43°18' E 005°01'15 7.3
2015-Apr-12 00:09N 43°06' E 005°12'7 7.2
2015-Apr-11 23:09N 43°00' E 005°18'12 7.1
2015-Apr-11 21:24N 42°50' E 005°27'9 6.8
2015-Apr-11 20:09N 42°43' E 005°34'6 7.9
2015-Apr-11 19:26N 42°38' E 005°38'9 7.8
2015-Apr-11 18:18N 42°31' E 005°45'7 8.3
2015-Apr-11 17:27N 42°25' E 005°50'7 7.9
2015-Apr-11 16:33N 42°19' E 005°56'  
Track history (hours):
 
Tides and Currents Weather Stations Pressure Air Temp Water Temp Dewpoint Dewpoint Depression Visibility Wind Speed Wind Dir Waves Ship Positions

Eurika

Last reported at 2015-Apr-20 15:33 UTC. Time now 2015-Apr-21 09:46 UTC.
Position N 40°56' E 009°32'.

Length 79 m; draft 3.2 m.

MMSI: 277335000.

Date/timePositionNaut miles runAvg speedWind from/ knotsBaromVisibWave heightAir tempDewpointWater temp
2015-Apr-20 15:33N 40°56' E 009°32'0 0.0
2015-Apr-20 14:33N 40°56' E 009°32'0 0.0
2015-Apr-20 13:33N 40°56' E 009°32'0 0.0
2015-Apr-20 12:33N 40°56' E 009°32'0 0.0
2015-Apr-20 11:33N 40°56' E 009°32'0 0.0
2015-Apr-20 10:33N 40°56' E 009°32'0 0.0
2015-Apr-20 09:33N 40°56' E 009°32'0 0.0
2015-Apr-20 08:33N 40°56' E 009°32'0 0.0
2015-Apr-20 07:33N 40°56' E 009°32'0 0.0
2015-Apr-20 06:33N 40°56' E 009°32'0 0.0
2015-Apr-20 05:31N 40°56' E 009°32'0 0.0
2015-Apr-20 04:33N 40°56' E 009°32'0 0.0
2015-Apr-20 03:33N 40°56' E 009°32'240 7.0
2015-Apr-18 17:29N 43°14' E 005°08'8 8.5
2015-Apr-18 16:33N 43°19' E 005°00'8 7.6
2015-Apr-18 15:33N 43°23' E 004°52'2 2.1
2015-Apr-18 14:26N 43°23' E 004°48'0 0.0
2015-Apr-18 13:21N 43°23' E 004°48'0 0.0
2015-Apr-18 11:29N 43°23' E 004°48'0 0.0
2015-Apr-18 10:33N 43°23' E 004°48'  
2015-Apr-12 06:09N 43°33' E 004°43'12 4.5
2015-Apr-12 03:26N 43°24' E 004°54'7 5.8
2015-Apr-12 02:10N 43°18' E 005°01'15 7.3
2015-Apr-12 00:09N 43°06' E 005°12'7 7.2
2015-Apr-11 23:09N 43°00' E 005°18'12 7.1
2015-Apr-11 21:24N 42°50' E 005°27'9 6.8
2015-Apr-11 20:09N 42°43' E 005°34'6 7.9
2015-Apr-11 19:26N 42°38' E 005°38'9 7.8
2015-Apr-11 18:18N 42°31' E 005°45'7 8.3
2015-Apr-11 17:27N 42°25' E 005°50'7 7.9
2015-Apr-11 16:33N 42°19' E 005°56'  

Dump ship's entire track history